Time;durP1;ratioP1;P1;durP2;ratioP2;P2;SDS_P1;SDS_P2;PMS_P1;PMS_P2;Temp;Humidity;BMP_temperature;BMP_pressure;BME280_temperature;BME280_humidity;BME280_pressure;Samples;Min_cycle;Max_cycle;Signal;HPM_P1;HPM_P2
2023/03/17 00:02:02;;;;;;;61.58;47.53;;;;;;;2.20;100.00;101604.25;5058038;28;20075;-80
2023/03/17 00:04:29;;;;;;;62.78;50.15;;;;;;;2.11;100.00;101594.53;5062181;28;20053;-79
2023/03/17 00:07:01;;;;;;;71.72;55.28;;;;;;;2.24;100.00;101597.81;5054091;28;20053;-80
2023/03/17 00:09:49;;;;;;;64.38;51.78;;;;;;;2.23;100.00;101587.44;5058820;28;20045;-79
2023/03/17 00:12:19;;;;;;;97.82;63.20;;;;;;;2.11;100.00;101594.53;5047761;28;20053;-80
2023/03/17 00:14:47;;;;;;;87.28;55.58;;;;;;;2.08;100.00;101584.31;5050133;28;20120;-79
2023/03/17 00:17:18;;;;;;;94.13;60.83;;;;;;;1.96;100.00;101587.97;5062956;28;20044;-80
2023/03/17 00:19:46;;;;;;;69.83;50.67;;;;;;;2.09;100.00;101593.00;5058886;28;20052;-80
2023/03/17 00:22:18;;;;;;;57.90;47.80;;;;;;;2.11;100.00;101591.91;5049893;28;20499;-79
2023/03/17 00:24:45;;;;;;;54.08;48.38;;;;;;;2.00;100.00;101599.88;5060618;28;20110;-79
2023/03/17 00:27:16;;;;;;;51.08;45.22;;;;;;;1.87;100.00;101600.03;5061266;28;20059;-79
2023/03/17 00:29:44;;;;;;;52.90;40.13;;;;;;;1.82;100.00;101603.06;5046134;28;20128;-80
2023/03/17 00:32:16;;;;;;;47.35;38.38;;;;;;;1.65;100.00;101605.41;5058052;28;20522;-80
2023/03/17 00:34:44;;;;;;;49.85;39.05;;;;;;;1.63;100.00;101599.44;5054001;28;20080;-79
2023/03/17 00:37:13;;;;;;;52.15;41.65;;;;;;;1.49;100.00;101600.59;5049745;28;20111;-79
2023/03/17 00:39:43;;;;;;;80.60;73.03;;;;;;;1.16;100.00;101607.59;5048230;28;20041;-79
2023/03/17 00:42:12;;;;;;;78.40;70.95;;;;;;;1.00;100.00;101602.75;5046851;28;20045;-79
2023/03/17 00:44:40;;;;;;;75.28;68.63;;;;;;;1.06;100.00;101606.66;5052565;28;20037;-79
2023/03/17 00:47:14;;;;;;;78.40;71.05;;;;;;;1.00;100.00;101602.75;5048947;28;20481;-79
2023/03/17 00:49:40;;;;;;;77.18;70.55;;;;;;;0.95;100.00;101609.31;5052332;28;20502;-80
2023/03/17 00:52:09;;;;;;;84.10;77.40;;;;;;;0.73;100.00;101620.59;5052588;28;20056;-79
2023/03/17 00:54:37;;;;;;;64.85;58.75;;;;;;;0.60;100.00;101620.72;5057679;28;20111;-79
2023/03/17 00:57:19;;;;;;;71.68;65.38;;;;;;;0.86;100.00;101622.16;5055499;28;20053;-79
2023/03/17 00:59:47;;;;;;;71.07;65.03;;;;;;;0.87;100.00;101623.78;5053738;28;20045;-79
2023/03/17 01:02:14;;;;;;;41.85;35.40;;;;;;;0.91;100.00;101614.78;5053917;28;20049;-80
2023/03/17 01:04:44;;;;;;;44.17;37.10;;;;;;;0.97;100.00;101623.06;5047885;28;20049;-79
2023/03/17 01:07:12;;;;;;;73.80;67.15;;;;;;;0.79;100.00;101622.75;5053845;28;20480;-79
2023/03/17 01:09:48;;;;;;;70.20;64.22;;;;;;;0.74;100.00;101627.50;5052883;28;20051;-79
2023/03/17 01:12:17;;;;;;;59.20;53.40;;;;;;;0.67;100.00;101621.94;5047018;28;20085;-79
2023/03/17 01:14:50;;;;;;;61.92;56.72;;;;;;;0.68;100.00;101621.78;5058006;28;20045;-79
2023/03/17 01:17:18;;;;;;;;;;;;;;;0.93;100.00;101637.34;5063515;28;20045;-79
2023/03/17 01:19:54;;;;;;;83.38;76.35;;;;;;;1.03;100.00;101633.06;5056283;28;19921;-79
2023/03/17 01:22:22;;;;;;;73.03;66.63;;;;;;;0.90;100.00;101633.19;5058312;28;20057;-80
2023/03/17 01:24:50;;;;;;;70.10;63.92;;;;;;;0.94;100.00;101645.09;5055004;28;20071;-80
2023/03/17 01:27:18;;;;;;;75.82;69.43;;;;;;;0.81;100.00;101647.00;5052019;28;20053;-79
2023/03/17 01:29:47;;;;;;;61.05;55.58;;;;;;;0.60;100.00;101647.69;5053788;28;20595;-79
2023/03/17 01:32:15;;;;;;;68.43;62.63;;;;;;;0.84;100.00;101644.97;5043896;28;20412;-79
2023/03/17 01:34:41;;;;;;;70.60;64.63;;;;;;;0.85;100.00;101648.44;5047864;28;20053;-79
2023/03/17 01:37:09;;;;;;;50.22;45.13;;;;;;;0.44;100.00;101647.22;5051654;28;20044;-79
2023/03/17 01:39:37;;;;;;;41.67;33.97;;;;;;;0.64;100.00;101650.94;5057365;28;20112;-80
2023/03/17 01:42:12;;;;;;;48.45;40.10;;;;;;;0.60;100.00;101650.31;5054703;28;20045;-79
2023/03/17 01:45:00;;;;;;;51.00;39.83;;;;;;;0.60;100.00;101652.94;5044455;28;20045;-79
2023/03/17 01:47:29;;;;;;;60.13;48.95;;;;;;;0.30;100.00;101650.88;5048522;28;20504;-79
2023/03/17 01:50:04;;;;;;;58.20;49.35;;;;;;;0.17;100.00;101656.19;5061433;28;20121;-79
2023/03/17 01:52:36;;;;;;;57.42;45.17;;;;;;;0.08;100.00;101658.69;5061406;28;20130;-79
2023/03/17 01:55:12;;;;;;;46.67;40.40;;;;;;;0.13;100.00;101660.00;5055898;28;20059;-80
2023/03/17 01:57:57;;;;;;;51.60;40.20;;;;;;;-0.08;100.00;101669.44;5041600;28;20115;-79
2023/03/17 02:03:10;;;;;;;49.90;44.83;;;;;;;-0.02;100.00;101661.16;5050535;28;20053;-80
2023/03/17 02:05:47;;;;;;;53.55;42.90;;;;;;;-0.14;100.00;101673.31;5041400;28;20054;-79
2023/03/17 02:08:19;;;;;;;47.08;41.25;;;;;;;-0.19;100.00;101672.81;5057322;28;20418;-80
2023/03/17 02:10:49;;;;;;;47.08;39.20;;;;;;;-0.46;100.00;101679.09;5060034;28;20517;-80
2023/03/17 02:13:19;;;;;;;51.58;42.08;;;;;;;-0.13;100.00;101679.38;5055574;28;20073;-80
2023/03/17 02:15:51;;;;;;;54.63;43.75;;;;;;;-0.65;100.00;101677.94;5044430;28;20164;-80
2023/03/17 02:18:23;;;;;;;52.30;46.72;;;;;;;-0.23;100.00;101679.22;5046998;28;20050;-80
2023/03/17 02:21:33;;;;;;;52.58;40.67;;;;;;;-0.38;100.00;101680.34;5060176;28;20102;-80
2023/03/17 02:24:06;;;;;;;47.75;39.75;;;;;;;-0.33;100.00;101684.28;4997985;28;20442;-80
2023/03/17 02:26:35;;;;;;;49.40;40.33;;;;;;;-0.26;100.00;101695.13;5050562;28;20076;-80
2023/03/17 02:29:06;;;;;;;40.72;36.35;;;;;;;-0.57;100.00;101699.94;5043474;28;20049;-80
2023/03/17 02:31:33;;;;;;;41.75;35.92;;;;;;;-0.29;100.00;101695.34;5059362;28;20049;-80
2023/03/17 02:34:10;;;;;;;40.05;35.85;;;;;;;-0.50;100.00;101701.16;5059791;28;20049;-80
2023/03/17 02:36:37;;;;;;;41.22;35.97;;;;;;;-0.43;100.00;101700.72;5052940;28;20107;-80
2023/03/17 02:41:53;;;;;;;41.75;37.35;;;;;;;-0.42;100.00;101712.81;5057506;28;20052;-80
2023/03/17 02:44:21;;;;;;;39.47;34.80;;;;;;;-0.62;100.00;101703.81;5058126;28;20079;-80
2023/03/17 02:46:49;;;;;;;48.55;39.53;;;;;;;-0.73;100.00;101712.38;5058147;28;20053;-79
2023/03/17 02:49:17;;;;;;;48.30;40.03;;;;;;;-0.57;100.00;101715.59;5057515;28;20431;-80
2023/03/17 02:51:45;;;;;;;76.03;62.55;;;;;;;-0.38;100.00;101727.34;5054295;28;20053;-79
2023/03/17 02:54:17;;;;;;;72.35;58.47;;;;;;;-0.42;100.00;101731.09;5051401;28;20099;-80
2023/03/17 02:56:44;;;;;;;;;;;;;;;-0.53;100.00;101721.44;5043443;28;20581;-80
2023/03/17 02:59:12;;;;;;;46.95;41.35;;;;;;;-0.61;100.00;101724.56;5048462;28;19921;-81
2023/03/17 03:01:40;;;;;;;43.30;38.35;;;;;;;-0.66;100.00;101734.50;5050198;28;20049;-79
2023/03/17 03:04:08;;;;;;;47.80;39.95;;;;;;;-0.30;100.00;101732.84;5001339;28;20054;-79
2023/03/17 03:06:38;;;;;;;51.90;44.30;;;;;;;-0.72;100.00;101732.34;5015393;28;20129;-80
2023/03/17 03:09:06;;;;;;;55.30;45.28;;;;;;;-0.80;100.00;101732.88;5020346;28;20073;-80
2023/03/17 03:11:41;;;;;;;56.45;46.50;;;;;;;-0.26;100.00;101742.94;5016973;28;20049;-80
2023/03/17 03:14:19;;;;;;;65.57;50.25;;;;;;;-0.55;100.00;101745.00;5000896;28;20046;-80
2023/03/17 03:16:46;;;;;;;61.25;49.75;;;;;;;-0.17;100.00;101745.84;5010091;28;20049;-80
2023/03/17 03:19:16;;;;;;;66.18;49.92;;;;;;;-0.30;100.00;101745.91;5015314;28;20049;-80
2023/03/17 03:21:43;;;;;;;67.97;54.47;;;;;;;0.02;100.00;101748.78;5012266;28;20474;-80
2023/03/17 03:24:12;;;;;;;65.28;54.45;;;;;;;-0.10;100.00;101749.66;5015823;28;20104;-79
2023/03/17 03:26:44;;;;;;;80.72;64.38;;;;;;;0.35;100.00;101748.06;5006092;28;20046;-80
2023/03/17 03:29:12;;;;;;;79.28;63.72;;;;;;;0.39;100.00;101748.66;5007031;28;20098;-80
2023/03/17 03:31:39;;;;;;;67.07;55.90;;;;;;;0.22;100.00;101747.31;5006122;28;20396;-80
2023/03/17 03:34:06;;;;;;;72.10;57.15;;;;;;;-0.06;100.00;101751.97;5017845;28;20049;-80
2023/03/17 03:36:33;;;;;;;84.97;65.20;;;;;;;-0.03;100.00;101756.09;5019632;28;20050;-80
2023/03/17 03:39:03;;;;;;;84.35;66.97;;;;;;;0.23;100.00;101749.81;5007791;28;20105;-80
2023/03/17 03:41:31;;;;;;;72.28;59.53;;;;;;;0.15;100.00;101746.94;5014281;28;21979;-79
2023/03/17 03:43:59;;;;;;;59.95;50.42;;;;;;;0.18;100.00;101759.78;5005687;28;20050;-80
2023/03/17 03:46:26;;;;;;;60.25;48.75;;;;;;;0.40;100.00;101752.97;5002289;28;20566;-80
2023/03/17 03:48:55;;;;;;;61.13;48.65;;;;;;;0.47;100.00;101758.56;5017383;28;20133;-80
2023/03/17 03:51:22;;;;;;;81.32;60.70;;;;;;;0.63;100.00;101759.91;5017775;28;20050;-80
2023/03/17 03:53:49;;;;;;;76.13;60.08;;;;;;;0.57;100.00;101768.19;5011676;28;20467;-80
2023/03/17 03:56:17;;;;;;;83.25;64.47;;;;;;;0.61;100.00;101766.22;5008309;28;20081;-80
2023/03/17 03:58:44;;;;;;;85.35;64.88;;;;;;;0.68;100.00;101770.84;5001602;28;20050;-80
2023/03/17 04:01:15;;;;;;;89.38;64.45;;;;;;;0.59;100.00;101768.09;5009182;28;20054;-80
2023/03/17 04:03:42;;;;;;;93.35;70.60;;;;;;;0.58;100.00;101777.72;5044312;28;20056;-80
2023/03/17 04:06:11;;;;;;;98.45;73.32;;;;;;;0.59;100.00;101776.78;5053444;28;20114;-80
2023/03/17 04:08:39;;;;;;;90.85;69.30;;;;;;;0.64;100.00;101779.88;5043199;28;20434;-80
2023/03/17 04:11:07;;;;;;;97.85;74.03;;;;;;;0.66;100.00;101784.97;5056027;28;20502;-80
2023/03/17 04:13:39;;;;;;;91.57;69.55;;;;;;;0.62;100.00;101780.94;5056378;28;20071;-79
2023/03/17 04:16:07;;;;;;;96.97;73.38;;;;;;;0.60;100.00;101781.03;5049280;28;20132;-80
2023/03/17 04:18:35;;;;;;;96.25;72.25;;;;;;;0.72;100.00;101787.13;5045229;28;20048;-80
2023/03/17 04:21:02;;;;;;;96.03;74.10;;;;;;;0.80;100.00;101800.47;5050102;28;20084;-80
2023/03/17 04:23:30;;;;;;;92.25;71.47;;;;;;;0.71;100.00;101797.72;5050063;28;20110;-80
2023/03/17 04:25:57;;;;;;;75.68;57.90;;;;;;;0.41;100.00;101804.28;5045462;28;20107;-79
2023/03/17 04:28:23;;;;;;;99.78;73.10;;;;;;;0.61;100.00;101805.44;5049938;28;20477;-80
2023/03/17 04:30:50;;;;;;;88.05;63.63;;;;;;;0.41;100.00;101806.91;5049558;28;20081;-79
2023/03/17 04:33:19;;;;;;;79.38;69.93;;;;;;;0.64;100.00;101803.41;5057911;28;20500;-80
2023/03/17 04:35:47;;;;;;;93.32;83.43;;;;;;;0.72;100.00;101807.22;5052738;28;20048;-80
2023/03/17 04:38:14;;;;;;;79.03;70.32;;;;;;;0.58;100.00;101803.06;5048592;28;20106;-80
2023/03/17 04:40:41;;;;;;;100.20;81.53;;;;;;;0.70;100.00;101807.38;5048397;28;20049;-80
2023/03/17 04:43:09;;;;;;;77.20;64.90;;;;;;;0.68;100.00;101807.47;5049153;28;20608;-80
2023/03/17 04:45:36;;;;;;;75.60;66.68;;;;;;;0.73;100.00;101803.66;5048526;28;20048;-80
2023/03/17 04:48:03;;;;;;;59.72;53.15;;;;;;;0.70;100.00;101804.75;5049549;28;20044;-80
2023/03/17 04:50:33;;;;;;;57.67;51.95;;;;;;;0.50;100.00;101813.22;5052962;28;20103;-80
2023/03/17 04:53:09;;;;;;;58.50;52.95;;;;;;;0.69;100.00;101814.34;5055259;28;20502;-80
2023/03/17 04:55:37;;;;;;;48.45;38.78;;;;;;;0.75;100.00;101814.84;5056193;28;20106;-80
2023/03/17 04:58:06;;;;;;;43.40;37.40;;;;;;;0.39;100.00;101816.63;5055515;28;20507;-80
2023/03/17 05:00:37;;;;;;;42.53;35.65;;;;;;;0.17;100.00;101822.59;5045581;28;20112;-80
2023/03/17 05:03:05;;;;;;;43.78;35.58;;;;;;;0.49;100.00;101822.03;5052700;28;20115;-80
2023/03/17 05:05:31;;;;;;;49.28;38.33;;;;;;;0.82;100.00;101824.75;5052768;28;20128;-80
2023/03/17 05:07:59;;;;;;;50.28;38.33;;;;;;;0.90;100.00;101829.38;5054570;28;20049;-80
2023/03/17 05:10:30;;;;;;;56.47;46.50;;;;;;;1.18;100.00;101841.22;5058095;28;20045;-80
2023/03/17 05:12:56;;;;;;;57.00;45.30;;;;;;;1.38;100.00;101835.28;5048008;28;20049;-80
2023/03/17 05:15:23;;;;;;;62.83;49.97;;;;;;;1.52;100.00;101847.31;5052188;28;20097;-80
2023/03/17 05:17:50;;;;;;;63.10;52.35;;;;;;;1.62;100.00;101844.81;5055466;28;20499;-80
2023/03/17 05:20:17;;;;;;;69.55;56.17;;;;;;;1.65;100.00;101854.22;5017818;28;20118;-79
2023/03/17 05:22:43;;;;;;;59.33;48.00;;;;;;;1.59;100.00;101855.50;5061870;28;20045;-80
2023/03/17 05:25:10;;;;;;;57.25;46.90;;;;;;;1.67;100.00;101853.13;5049413;28;20054;-80
2023/03/17 05:27:38;;;;;;;54.60;44.05;;;;;;;1.84;100.00;101860.47;5051746;28;20053;-80
2023/03/17 05:30:07;;;;;;;49.92;41.83;;;;;;;1.83;100.00;101852.75;5051774;28;20111;-80
2023/03/17 05:32:34;;;;;;;57.20;46.20;;;;;;;1.86;100.00;101855.13;5053524;28;20049;-80
2023/03/17 05:35:02;;;;;;;54.85;45.35;;;;;;;1.98;100.00;101856.78;5042941;28;20045;-80
2023/03/17 05:37:29;;;;;;;57.45;44.22;;;;;;;1.80;100.00;101863.47;5049768;28;20132;-80
2023/03/17 05:39:56;;;;;;;52.72;42.80;;;;;;;2.08;100.00;101867.34;5050285;28;20574;-80
2023/03/17 05:42:23;;;;;;;50.97;42.28;;;;;;;2.18;100.00;101863.06;5050950;28;20052;-80
2023/03/17 05:44:51;;;;;;;56.30;41.97;;;;;;;2.27;100.00;101866.75;5054538;28;20506;-80
2023/03/17 05:47:17;;;;;;;50.40;42.10;;;;;;;2.32;100.00;101864.56;5052501;28;20057;-80
2023/03/17 05:49:44;;;;;;;60.00;49.20;;;;;;;2.45;100.00;101869.63;5057804;28;20434;-80
2023/03/17 05:52:11;;;;;;;48.83;42.92;;;;;;;2.40;100.00;101877.06;5054767;28;20053;-80
2023/03/17 05:54:38;;;;;;;54.60;45.78;;;;;;;2.48;100.00;101880.75;5054478;28;20048;-80
2023/03/17 05:57:05;;;;;;;47.60;42.05;;;;;;;2.33;100.00;101879.34;5052170;28;20091;-80
2023/03/17 05:59:32;;;;;;;46.90;41.33;;;;;;;2.37;100.00;101883.38;5049075;28;20048;-80
2023/03/17 06:02:00;;;;;;;55.60;44.58;;;;;;;2.49;100.00;101892.06;5052635;28;20041;-80
2023/03/17 06:04:27;;;;;;;53.75;43.72;;;;;;;2.59;100.00;101894.75;5063692;28;20041;-80
2023/03/17 06:06:53;;;;;;;54.53;44.47;;;;;;;2.65;100.00;101896.88;5061382;28;20053;-80
2023/03/17 06:09:20;;;;;;;55.88;47.00;;;;;;;2.59;100.00;101900.00;5053620;28;20044;-80
2023/03/17 06:11:47;;;;;;;54.20;45.80;;;;;;;2.76;100.00;101907.34;5057025;28;20057;-80
2023/03/17 06:14:13;;;;;;;57.15;50.15;;;;;;;2.98;100.00;101899.34;5057407;28;20053;-80
2023/03/17 06:16:40;;;;;;;61.42;51.28;;;;;;;3.09;100.00;101908.97;5055090;28;20053;-80
2023/03/17 06:19:09;;;;;;;62.20;52.33;;;;;;;3.14;100.00;101908.56;5057205;28;20052;-80
2023/03/17 06:21:35;;;;;;;63.90;51.60;;;;;;;3.26;100.00;101914.59;5049810;28;20057;-80
2023/03/17 06:24:02;;;;;;;72.60;55.40;;;;;;;3.82;100.00;101924.72;5053486;28;20080;-80
2023/03/17 06:26:29;;;;;;;60.28;50.78;;;;;;;3.62;100.00;101921.16;5052332;28;20048;-80
2023/03/17 06:28:56;;;;;;;59.35;51.17;;;;;;;3.72;100.00;101919.38;5051472;28;20053;-80
2023/03/17 06:31:23;;;;;;;61.38;54.53;;;;;;;3.99;100.00;101926.69;5058183;28;20068;-80
2023/03/17 06:33:49;;;;;;;72.85;58.88;;;;;;;3.97;100.00;101927.81;5059362;28;20061;-80
2023/03/17 06:36:17;;;;;;;66.18;51.58;;;;;;;3.92;100.00;101936.09;5055262;28;20076;-80
2023/03/17 06:38:44;;;;;;;94.35;49.10;;;;;;;4.07;100.00;101934.75;5053029;28;20054;-80
2023/03/17 06:41:11;;;;;;;81.55;53.25;;;;;;;4.17;100.00;101929.50;5058700;28;20131;-80
2023/03/17 06:43:38;;;;;;;75.80;49.40;;;;;;;4.27;100.00;101934.81;5060981;28;20056;-80
2023/03/17 06:46:06;;;;;;;80.20;50.55;;;;;;;4.34;100.00;101928.88;5061041;28;20048;-80
2023/03/17 06:48:33;;;;;;;72.38;52.55;;;;;;;4.22;100.00;101931.75;5054130;28;20060;-80
2023/03/17 06:50:59;;;;;;;55.78;47.97;;;;;;;4.41;100.00;101933.59;5062733;28;20056;-80
2023/03/17 06:53:27;;;;;;;61.38;49.92;;;;;;;4.49;100.00;101934.56;5055281;28;20541;-80
2023/03/17 06:55:55;;;;;;;69.38;55.47;;;;;;;4.61;100.00;101931.81;5055961;28;20466;-80
2023/03/17 06:58:21;;;;;;;68.78;60.72;;;;;;;4.72;100.00;101939.56;5059597;28;20052;-80
2023/03/17 07:00:51;;;;;;;64.05;54.28;;;;;;;4.71;100.00;101935.28;5059891;28;20457;-80
2023/03/17 07:03:18;;;;;;;73.20;53.92;;;;;;;4.59;100.00;101943.31;5054945;28;20044;-80
2023/03/17 07:05:46;;;;;;;60.75;53.75;;;;;;;4.81;100.00;101944.00;5054348;28;20045;-80
2023/03/17 07:08:13;;;;;;;68.40;57.38;;;;;;;5.22;100.00;101949.97;5058125;28;20068;-80
2023/03/17 07:10:43;;;;;;;68.10;56.92;;;;;;;5.44;100.00;101951.44;5068811;28;20045;-80
2023/03/17 07:13:09;;;;;;;57.10;51.25;;;;;;;5.88;100.00;101949.09;5054896;28;20108;-80
2023/03/17 07:15:36;;;;;;;52.35;47.30;;;;;;;5.76;100.00;101950.25;5064801;28;20045;-80
2023/03/17 07:18:05;;;;;;;59.22;52.83;;;;;;;6.78;100.00;101958.06;5054954;28;20045;-80
2023/03/17 07:20:31;;;;;;;56.67;50.47;;;;;;;6.29;100.00;101949.63;5061728;28;20083;-80
2023/03/17 07:22:58;;;;;;;61.58;55.33;;;;;;;6.90;100.00;101951.59;5053919;28;20063;-80
2023/03/17 07:25:25;;;;;;;92.35;71.70;;;;;;;6.52;100.00;101957.97;5056788;28;20053;-80
2023/03/17 07:27:53;;;;;;;52.58;46.85;;;;;;;5.87;100.00;101950.06;5051765;28;20049;-80
2023/03/17 07:30:20;;;;;;;66.43;59.40;;;;;;;6.92;100.00;101954.06;5061222;28;20087;-81
2023/03/17 07:32:47;;;;;;;56.70;50.75;;;;;;;6.83;100.00;101948.69;5062160;28;20076;-81
2023/03/17 07:35:14;;;;;;;37.75;33.80;;;;;;;6.45;100.00;101941.91;5055750;28;20049;-80
2023/03/17 07:37:41;;;;;;;35.25;31.55;;;;;;;6.56;100.00;101938.19;5056874;28;20056;-80
2023/03/17 07:40:10;;;;;;;43.13;38.83;;;;;;;6.73;100.00;101939.19;5054797;28;20049;-80
2023/03/17 07:42:37;;;;;;;38.92;34.85;;;;;;;6.85;100.00;101938.00;5054450;28;20501;-80
2023/03/17 07:45:07;;;;;;;40.05;35.90;;;;;;;7.11;100.00;101933.59;5055360;28;20142;-81
2023/03/17 07:47:34;;;;;;;40.45;36.28;;;;;;;6.70;100.00;101935.06;5057196;28;20068;-81
2023/03/17 07:50:00;;;;;;;36.88;32.83;;;;;;;6.81;100.00;101932.19;5058949;28;20059;-81
2023/03/17 07:52:27;;;;;;;39.72;35.63;;;;;;;6.95;100.00;101940.53;5054831;28;20049;-80
2023/03/17 07:54:54;;;;;;;42.22;38.13;;;;;;;7.32;100.00;101937.69;5062116;28;20075;-80
2023/03/17 07:57:21;;;;;;;40.70;36.63;;;;;;;6.91;100.00;101945.31;5054617;28;20103;-81
2023/03/17 07:59:49;;;;;;;40.17;36.33;;;;;;;7.93;100.00;101941.22;5060038;28;20049;-80
2023/03/17 08:02:18;;;;;;;39.45;35.80;;;;;;;7.38;100.00;101938.88;5059234;28;20051;-81
2023/03/17 08:04:45;;;;;;;36.33;33.10;;;;;;;5.92;100.00;101937.28;5061280;28;20064;-80
2023/03/17 08:07:13;;;;;;;39.50;35.33;;;;;;;7.51;100.00;101939.31;5058621;28;20102;-80
2023/03/17 08:09:40;;;;;;;41.35;37.63;;;;;;;7.98;100.00;101939.72;5058416;28;20057;-80
2023/03/17 08:12:08;;;;;;;37.88;34.78;;;;;;;7.24;100.00;101935.00;5053908;28;20045;-80
2023/03/17 08:14:35;;;;;;;35.15;32.25;;;;;;;7.75;100.00;101936.81;5054168;28;20071;-80
2023/03/17 08:17:01;;;;;;;34.83;31.88;;;;;;;7.42;100.00;101934.97;5055045;28;20482;-80
2023/03/17 08:19:30;;;;;;;39.15;36.03;;;;;;;7.94;100.00;101930.44;5058835;28;20060;-80
2023/03/17 08:21:57;;;;;;;34.63;31.67;;;;;;;7.54;100.00;101923.97;5052393;28;20041;-80
2023/03/17 08:24:25;;;;;;;34.50;31.27;;;;;;;7.60;100.00;101919.88;5061291;28;20487;-82
2023/03/17 08:26:52;;;;;;;35.53;32.65;;;;;;;7.24;100.00;101925.25;5058949;28;20074;-81
2023/03/17 08:29:19;;;;;;;38.13;34.85;;;;;;;7.89;100.00;101922.16;5057411;28;20111;-80
2023/03/17 08:31:45;;;;;;;35.40;32.20;;;;;;;7.23;100.00;101918.34;5065418;28;20067;-80
2023/03/17 08:34:12;;;;;;;34.40;31.48;;;;;;;7.08;100.00;101925.13;5052221;28;20053;-80
2023/03/17 08:36:40;;;;;;;36.85;34.00;;;;;;;6.69;100.00;101927.25;5052114;28;20107;-80
2023/03/17 08:39:09;;;;;;;37.63;34.53;;;;;;;7.09;100.00;101921.53;5057256;28;20127;-81
2023/03/17 08:41:36;;;;;;;35.95;32.90;;;;;;;7.56;100.00;101911.44;5055467;28;20049;-80
2023/03/17 08:44:03;;;;;;;29.88;27.67;;;;;;;7.47;100.00;101906.22;5062794;28;20073;-80
2023/03/17 08:46:31;;;;;;;24.00;22.27;;;;;;;7.25;100.00;101915.50;5064917;28;20072;-80
2023/03/17 08:49:02;;;;;;;23.70;22.00;;;;;;;7.42;100.00;101904.06;5059278;28;20095;-80
2023/03/17 08:51:33;;;;;;;23.20;21.30;;;;;;;7.08;100.00;101906.63;5060039;28;20067;-81
2023/03/17 08:54:01;;;;;;;24.58;22.67;;;;;;;7.39;100.00;101907.03;5056768;28;20048;-81
2023/03/17 08:56:28;;;;;;;26.45;24.27;;;;;;;7.31;100.00;101909.59;5058286;28;20107;-80
2023/03/17 08:58:55;;;;;;;28.00;25.50;;;;;;;6.97;100.00;101904.25;5055107;28;20075;-80
2023/03/17 09:01:23;;;;;;;26.75;24.40;;;;;;;7.07;100.00;101908.44;5064079;28;20041;-81
2023/03/17 09:03:51;;;;;;;30.85;28.10;;;;;;;6.46;100.00;101917.16;5057424;28;20057;-80
2023/03/17 09:06:18;;;;;;;31.30;28.60;;;;;;;6.04;100.00;101914.22;5057111;28;20102;-80
2023/03/17 09:08:46;;;;;;;32.88;29.88;;;;;;;6.12;100.00;101924.88;5056172;28;20501;-80
2023/03/17 09:11:18;;;;;;;37.10;33.60;;;;;;;6.10;100.00;101919.72;5047977;28;20061;-80
2023/03/17 09:13:46;;;;;;;36.63;33.08;;;;;;;5.98;100.00;101920.91;5059092;28;20041;-80
2023/03/17 09:16:13;;;;;;;34.50;31.20;;;;;;;6.35;100.00;101922.63;5057652;28;20053;-81
2023/03/17 09:18:40;;;;;;;38.17;34.85;;;;;;;6.12;100.00;101928.34;5053976;28;20045;-80
2023/03/17 09:21:08;;;;;;;62.65;48.45;;;;;;;5.93;100.00;101920.50;5054727;28;20056;-80
2023/03/17 09:23:35;;;;;;;37.55;33.85;;;;;;;5.74;100.00;101916.13;5058386;28;20049;-80
2023/03/17 09:26:02;;;;;;;41.47;37.08;;;;;;;5.65;100.00;101917.00;5052525;28;20563;-80
2023/03/17 09:28:30;;;;;;;46.65;42.38;;;;;;;5.69;100.00;101926.28;5051635;28;20044;-80
2023/03/17 09:30:58;;;;;;;41.78;37.58;;;;;;;5.68;100.00;101921.97;5054173;28;20499;-80
2023/03/17 09:33:25;;;;;;;61.03;55.05;;;;;;;5.55;100.00;101921.47;5052998;28;20049;-80
2023/03/17 09:35:53;;;;;;;42.35;38.47;;;;;;;5.45;100.00;101917.06;5050701;28;20158;-80
2023/03/17 09:38:20;;;;;;;42.35;38.30;;;;;;;5.78;100.00;101924.56;5057218;28;20109;-80
2023/03/17 09:40:52;;;;;;;48.45;43.30;;;;;;;5.55;100.00;101916.19;5060480;28;20111;-80
2023/03/17 09:43:28;;;;;;;36.25;32.85;;;;;;;5.62;100.00;101909.38;5059016;28;20068;-80
2023/03/17 09:45:56;;;;;;;39.47;35.53;;;;;;;5.59;100.00;101915.75;5056045;28;20075;-80
2023/03/17 09:48:42;;;;;;;37.42;33.47;;;;;;;5.72;100.00;101924.19;5054183;28;20057;-80
2023/03/17 09:51:11;;;;;;;35.33;31.83;;;;;;;5.53;100.00;101911.06;5064423;28;20080;-80
2023/03/17 09:53:48;;;;;;;38.03;34.22;;;;;;;5.53;100.00;101912.88;5056747;28;20044;-79
2023/03/17 09:56:18;;;;;;;38.15;34.20;;;;;;;5.59;100.00;101912.28;5057805;28;20049;-80
2023/03/17 09:58:50;;;;;;;37.45;33.47;;;;;;;5.57;100.00;101914.22;5058180;28;20796;-80
2023/03/17 10:01:19;;;;;;;39.40;35.33;;;;;;;5.77;100.00;101912.38;5057134;28;20079;-80
2023/03/17 10:03:47;;;;;;;38.17;34.47;;;;;;;5.46;100.00;101918.72;5056287;28;20045;-80
2023/03/17 10:06:33;;;;;;;36.25;32.78;;;;;;;5.61;100.00;101915.63;5058068;28;20588;-80
2023/03/17 10:09:07;;;;;;;36.85;33.45;;;;;;;5.76;100.00;101916.81;5058568;28;20045;-80
2023/03/17 10:11:41;;;;;;;39.60;35.80;;;;;;;5.71;100.00;101913.78;5059493;28;20049;-80
2023/03/17 10:14:26;;;;;;;38.25;34.65;;;;;;;5.86;100.00;101920.22;5054697;28;20040;-80
2023/03/17 10:17:00;;;;;;;36.00;32.75;;;;;;;6.00;100.00;101915.50;5060713;28;20049;-79
2023/03/17 10:19:31;;;;;;;34.88;31.63;;;;;;;5.77;100.00;101907.91;5059319;28;20045;-79
2023/03/17 10:22:01;;;;;;;34.25;30.90;;;;;;;5.95;100.00;101914.13;5058759;28;20041;-80
2023/03/17 10:24:32;;;;;;;33.70;30.55;;;;;;;6.26;100.00;101908.53;5057861;28;20042;-80
2023/03/17 10:27:03;;;;;;;37.58;33.78;;;;;;;5.89;100.00;101901.47;5058652;28;21485;-80
2023/03/17 10:29:30;;;;;;;34.75;31.35;;;;;;;5.94;100.00;101907.19;5057537;28;20100;-80
2023/03/17 10:31:59;;;;;;;34.15;30.75;;;;;;;5.91;100.00;101909.25;5056520;28;20465;-80
2023/03/17 10:34:28;;;;;;;36.78;33.17;;;;;;;6.13;100.00;101894.88;5056405;28;20056;-80
2023/03/17 10:37:00;;;;;;;32.88;29.70;;;;;;;6.27;100.00;101899.66;5056559;28;20060;-80
2023/03/17 10:39:28;;;;;;;33.00;30.00;;;;;;;6.11;100.00;101899.44;5057014;28;20097;-80
2023/03/17 10:41:57;;;;;;;36.13;33.00;;;;;;;6.46;100.00;101903.13;5054163;28;20053;-80
2023/03/17 10:44:49;;;;;;;34.15;31.05;;;;;;;6.51;100.00;101898.25;5059615;28;20500;-80
2023/03/17 10:47:31;;;;;;;32.80;29.90;;;;;;;6.69;100.00;101891.16;5058216;28;20610;-80
2023/03/17 10:50:04;;;;;;;33.72;30.52;;;;;;;6.80;100.00;101892.72;5050935;28;20065;-80
2023/03/17 10:52:35;;;;;;;31.42;28.58;;;;;;;7.14;100.00;101890.19;5051133;28;20053;-80
2023/03/17 10:55:05;;;;;;;29.57;26.87;;;;;;;7.07;100.00;101887.31;5056508;28;20079;-80
2023/03/17 10:57:36;;;;;;;27.13;24.67;;;;;;;7.08;100.00;101882.84;5061972;28;20044;-80
2023/03/17 11:00:13;;;;;;;25.73;23.73;;;;;;;7.01;100.00;101877.38;5059124;28;20048;-80
2023/03/17 11:02:48;;;;;;;27.83;25.60;;;;;;;7.26;100.00;101875.75;5049431;28;20049;-80
2023/03/17 11:05:20;;;;;;;28.48;26.13;;;;;;;6.71;100.00;101875.97;5055070;28;20057;-80
2023/03/17 11:07:47;;;;;;;29.15;27.00;;;;;;;7.66;100.00;101874.28;4364367;28;10001017;-80
2023/03/17 11:10:18;;;;;;;28.92;26.63;;;;;;;7.05;100.00;101872.59;5066839;28;20061;-80
2023/03/17 11:12:48;;;;;;;29.48;27.10;;;;;;;7.26;100.00;101872.25;5066215;28;20077;-80
2023/03/17 11:15:18;;;;;;;29.23;26.77;;;;;;;7.04;100.00;101865.66;5067827;28;20631;-80
2023/03/17 11:17:55;;;;;;;28.63;26.10;;;;;;;6.71;100.00;101867.22;5069239;28;20049;-80
2023/03/17 11:20:43;;;;;;;29.40;27.00;;;;;;;7.06;100.00;101866.34;5063373;28;20059;-80
2023/03/17 11:23:26;;;;;;;27.10;24.90;;;;;;;7.02;100.00;101865.84;5073755;28;20049;-80
2023/03/17 11:26:09;;;;;;;;;;;;;;;7.00;100.00;101867.78;5073876;28;20110;-79